createdAt,value
2019-04-27T00:02:18.143Z,21.60
2019-04-27T00:07:37.902Z,19.67
2019-04-27T00:12:42.888Z,19.43
2019-04-27T00:18:03.650Z,22.03
2019-04-27T00:23:08.734Z,20.33
2019-04-27T00:28:12.861Z,20.23
2019-04-27T00:33:16.344Z,16.80
2019-04-27T00:38:27.503Z,20.07
2019-04-27T00:43:32.752Z,15.70
2019-04-27T00:48:36.224Z,14.67
2019-04-27T00:53:39.643Z,14.17
2019-04-27T00:58:50.441Z,13.47
2019-04-27T01:03:55.513Z,14.57
2019-04-27T01:08:58.951Z,13.97
2019-04-27T01:14:03.890Z,11.30
2019-04-27T01:19:08.481Z,12.13
2019-04-27T01:24:12.686Z,14.20
2019-04-27T01:29:20.747Z,10.90
2019-04-27T01:34:24.166Z,12.40
2019-04-27T01:39:28.940Z,10.87
2019-04-27T01:44:32.620Z,11.20
2019-04-27T01:49:36.032Z,15.53
2019-04-27T01:54:41.076Z,12.93
2019-04-27T01:59:44.596Z,7.20
2019-04-27T02:05:06.200Z,8.03
2019-04-27T02:10:11.622Z,8.57
2019-04-27T02:15:15.966Z,6.80
2019-04-27T02:20:19.827Z,7.27
2019-04-27T02:25:23.437Z,7.73
2019-04-27T02:30:34.489Z,6.70
2019-04-27T02:35:39.072Z,6.70
2019-04-27T02:40:49.974Z,7.13
2019-04-27T02:45:53.400Z,6.37
2019-04-27T02:56:13.920Z,4.90
2019-04-27T03:01:19.875Z,6.70
2019-04-27T03:06:23.063Z,7.13
2019-04-27T03:11:30.471Z,5.17
2019-04-27T03:16:46.693Z,5.93
2019-04-27T03:21:59.215Z,4.33
2019-04-27T03:27:03.903Z,7.77
2019-04-27T03:32:12.389Z,4.10
2019-04-27T03:37:12.565Z,4.73
2019-04-27T03:42:16.909Z,5.17
2019-04-27T03:47:20.375Z,5.17
2019-04-27T03:52:41.536Z,4.07
2019-04-27T03:58:02.934Z,4.37
2019-04-27T04:03:06.421Z,4.50
2019-04-27T04:08:10.781Z,3.93
2019-04-27T04:13:22.648Z,4.90
2019-04-27T04:18:26.781Z,4.03
2019-04-27T04:23:30.236Z,5.13
2019-04-27T04:28:33.574Z,3.77
2019-04-27T04:33:36.981Z,3.50
2019-04-27T04:38:40.398Z,3.37
2019-04-27T04:43:51.111Z,3.97
2019-04-27T04:48:54.505Z,3.53
2019-04-27T04:53:59.838Z,3.60
2019-04-27T04:59:03.068Z,4.37
2019-04-27T05:04:06.484Z,5.17
2019-04-27T05:09:09.901Z,3.57
2019-04-27T05:14:13.322Z,2.90
2019-04-27T05:19:18.741Z,5.30
2019-04-27T05:24:21.854Z,3.13
2019-04-27T05:29:25.280Z,3.30
2019-04-27T05:34:29.403Z,2.80
2019-04-27T05:39:32.946Z,2.40
2019-04-27T05:44:56.315Z,4.13
2019-04-27T05:50:01.416Z,3.10
2019-04-27T05:55:05.190Z,2.87
2019-04-27T06:00:09.501Z,2.97
2019-04-27T06:05:13.370Z,4.93
2019-04-27T06:10:16.850Z,3.40
2019-04-27T06:15:20.289Z,4.03
2019-04-27T06:20:23.695Z,3.27
2019-04-27T06:25:30.349Z,3.23
2019-04-27T06:30:32.244Z,3.67
2019-04-27T06:35:35.670Z,2.80
2019-04-27T06:40:39.264Z,3.43
2019-04-27T06:45:43.263Z,2.23
2019-04-27T06:50:46.640Z,2.70
2019-04-27T06:55:50.149Z,5.17
2019-04-27T07:00:53.752Z,2.70
2019-04-27T07:05:58.848Z,3.43
2019-04-27T07:11:02.375Z,4.30
2019-04-27T07:16:05.801Z,3.57
2019-04-27T07:21:16.883Z,7.03
2019-04-27T07:26:14.607Z,5.57
2019-04-27T07:31:19.310Z,4.03
2019-04-27T07:36:23.028Z,5.57
2019-04-27T07:41:26.441Z,5.00
2019-04-27T07:46:31.702Z,5.47
2019-04-27T07:51:35.377Z,4.43
2019-04-27T07:56:39.112Z,4.43
2019-04-27T08:01:42.488Z,5.07
2019-04-27T08:06:45.975Z,4.60
2019-04-27T08:11:51.382Z,6.23
2019-04-27T08:16:54.739Z,5.07
2019-04-27T08:21:59.543Z,5.40
2019-04-27T08:27:09.346Z,5.00
2019-04-27T08:32:30.746Z,3.27
2019-04-27T08:37:34.379Z,7.17
2019-04-27T08:42:39.167Z,5.13
2019-04-27T08:47:42.713Z,5.17
2019-04-27T08:52:46.134Z,4.40
2019-04-27T08:57:49.702Z,5.03
2019-04-27T09:02:53.172Z,5.37
2019-04-27T09:07:59.709Z,7.60
2019-04-27T09:13:08.891Z,4.73
2019-04-27T09:18:14.087Z,3.80
2019-04-27T09:23:18.814Z,4.33
2019-04-27T09:28:22.368Z,6.77
2019-04-27T09:33:25.797Z,5.03
2019-04-27T09:38:29.806Z,12.47
2019-04-27T09:43:33.331Z,4.93
2019-04-27T09:48:36.763Z,8.17
2019-04-27T09:53:40.178Z,4.77
2019-04-27T09:58:43.789Z,4.77
2019-04-27T10:03:47.217Z,4.73
2019-04-27T10:08:50.704Z,5.10
2019-04-27T10:13:55.636Z,9.10
2019-04-27T10:18:59.136Z,5.60
2019-04-27T10:24:03.475Z,6.83
2019-04-27T10:29:06.977Z,5.37
2019-04-27T10:34:10.427Z,4.77
2019-04-27T10:39:13.908Z,4.40
2019-04-27T10:44:17.264Z,6.10
2019-04-27T10:49:20.697Z,6.53
2019-04-27T10:54:24.120Z,6.13
2019-04-27T10:59:27.725Z,4.87
2019-04-27T11:04:50.899Z,7.30
2019-04-27T11:09:54.455Z,6.27
2019-04-27T11:14:57.867Z,4.60
2019-04-27T11:20:02.725Z,3.37
2019-04-27T11:25:08.226Z,4.87
2019-04-27T11:30:15.653Z,4.27
2019-04-27T11:35:21.030Z,3.60
2019-04-27T11:40:24.965Z,3.43
2019-04-27T11:45:28.617Z,4.30
2019-04-27T11:50:31.990Z,3.00
2019-04-27T11:55:35.397Z,14.63
2019-04-27T12:00:38.819Z,3.70
2019-04-27T12:05:42.230Z,3.80
2019-04-27T12:10:48.250Z,3.93
2019-04-27T12:15:51.883Z,3.60
2019-04-27T12:20:55.790Z,4.27
2019-04-27T12:25:59.289Z,4.43
2019-04-27T12:31:04.357Z,5.90
2019-04-27T12:36:08.035Z,8.50
2019-04-27T12:41:11.469Z,4.27
2019-04-27T12:46:16.016Z,3.20
2019-04-27T12:51:21.026Z,5.27
2019-04-27T12:56:41.366Z,6.53
2019-04-27T13:01:46.265Z,7.17
2019-04-27T13:06:49.763Z,3.03
2019-04-27T13:11:53.182Z,4.53
2019-04-27T13:16:56.599Z,10.47
2019-04-27T13:22:23.718Z,5.63
2019-04-27T13:27:18.186Z,6.07
2019-04-27T13:32:21.840Z,7.13
2019-04-27T13:37:33.072Z,3.77
2019-04-27T13:42:38.222Z,5.20
2019-04-27T13:47:43.328Z,6.27
2019-04-27T13:52:46.805Z,4.77
2019-04-27T13:57:50.743Z,5.83
2019-04-27T14:02:54.393Z,9.03
2019-04-27T14:07:59.168Z,7.90
2019-04-27T14:13:02.741Z,3.40
2019-04-27T14:18:09.753Z,7.47
2019-04-27T14:23:18.652Z,17.17
2019-04-27T14:28:22.035Z,7.67
2019-04-27T14:33:26.303Z,9.03
2019-04-27T14:39:01.819Z,7.33
2019-04-27T14:55:28.233Z,3.70
2019-04-27T15:00:58.452Z,8.23
2019-04-27T15:05:53.661Z,5.07
2019-04-27T15:10:56.676Z,11.53
2019-04-27T15:16:02.714Z,5.57
2019-04-27T15:21:05.919Z,6.10
2019-04-27T15:26:10.457Z,6.77
2019-04-27T15:31:27.012Z,10.77
2019-04-27T15:36:32.005Z,5.67
2019-04-27T15:41:39.452Z,5.17
2019-04-27T15:46:42.935Z,3.97
2019-04-27T15:51:46.362Z,3.80
2019-04-27T15:56:49.780Z,2.77
2019-04-27T16:01:53.253Z,2.63
2019-04-27T16:06:58.555Z,4.47
2019-04-27T16:12:09.931Z,5.70
2019-04-27T16:17:09.888Z,4.23
2019-04-27T16:22:12.233Z,6.13
2019-04-27T16:27:15.730Z,7.20
2019-04-27T16:32:19.235Z,4.90
2019-04-27T16:37:28.561Z,6.23
2019-04-27T16:42:32.064Z,4.17
2019-04-27T16:47:35.655Z,5.30
2019-04-27T16:52:39.076Z,2.67
2019-04-27T16:57:42.500Z,3.23
2019-04-27T17:02:46.049Z,1.70
2019-04-27T17:07:49.461Z,1.73
2019-04-27T17:12:52.877Z,2.27
2019-04-27T17:18:13.944Z,3.30
2019-04-27T17:23:22.544Z,3.77
2019-04-27T17:28:25.153Z,2.90
2019-04-27T17:33:32.724Z,2.07
2019-04-27T17:38:36.138Z,2.20
2019-04-27T17:43:41.579Z,3.63
2019-04-27T17:48:44.672Z,2.50
2019-04-27T17:53:49.900Z,2.93
2019-04-27T17:58:53.263Z,5.33
2019-04-27T18:04:01.586Z,2.17
2019-04-27T18:09:03.399Z,2.90
2019-04-27T18:14:09.822Z,2.73
2019-04-27T18:19:18.416Z,6.63
2019-04-27T18:24:25.112Z,3.30
2019-04-27T18:29:30.834Z,3.40
2019-04-27T18:34:33.852Z,4.53
2019-04-27T18:39:38.777Z,3.20
2019-04-27T18:44:43.348Z,4.13
2019-04-27T18:50:07.347Z,3.63
2019-04-27T18:55:02.310Z,6.20
2019-04-27T19:00:07.481Z,4.33
2019-04-27T19:05:11.226Z,5.63
2019-04-27T19:10:14.809Z,9.57
2019-04-27T19:15:19.418Z,4.37
2019-04-27T19:20:22.846Z,5.50
2019-04-27T19:25:30.750Z,6.43
2019-04-27T19:30:38.490Z,4.10
2019-04-27T19:35:42.160Z,4.90
2019-04-27T19:40:45.616Z,4.57
2019-04-27T19:45:49.012Z,7.67
2019-04-27T19:50:52.432Z,3.90
2019-04-27T19:56:01.646Z,4.13
2019-04-27T20:01:11.861Z,6.70
2019-04-27T20:06:12.470Z,6.07
2019-04-27T20:11:16.012Z,7.73
2019-04-27T20:16:20.812Z,12.23
2019-04-27T20:21:24.388Z,9.27
2019-04-27T20:26:27.933Z,7.20
2019-04-27T20:31:32.563Z,11.17
2019-04-27T20:36:36.086Z,8.63
2019-04-27T20:41:41.100Z,11.00
2019-04-27T20:46:44.678Z,9.60
2019-04-27T20:51:53.041Z,8.57
2019-04-27T20:56:57.089Z,7.20
2019-04-27T21:02:02.301Z,10.60
2019-04-27T21:07:07.346Z,8.53
2019-04-27T21:12:10.770Z,11.87
2019-04-27T21:17:14.178Z,14.40
2019-04-27T21:22:17.673Z,6.40
2019-04-27T21:27:21.610Z,9.13
2019-04-27T21:32:25.256Z,8.20
2019-04-27T21:37:28.684Z,10.17
2019-04-27T21:42:32.092Z,7.87
2019-04-27T21:47:35.502Z,5.93
2019-04-27T21:52:49.704Z,7.67
2019-04-27T21:57:53.128Z,9.23
2019-04-27T22:02:56.699Z,6.93
2019-04-27T22:08:00.874Z,7.93
2019-04-27T22:13:05.355Z,8.23
2019-04-27T22:18:08.797Z,11.40
2019-04-27T22:23:23.169Z,13.87
2019-04-27T22:28:26.940Z,8.73
2019-04-27T22:33:30.364Z,13.13
2019-04-27T22:38:33.820Z,10.20
2019-04-27T22:43:44.857Z,11.90
2019-04-27T22:48:48.316Z,15.87
2019-04-27T22:53:51.733Z,11.73
2019-04-27T22:59:00.642Z,13.23
2019-04-27T23:04:03.567Z,12.33
2019-04-27T23:09:07.209Z,10.20
2019-04-27T23:14:11.127Z,13.90
2019-04-27T23:19:14.757Z,18.03
2019-04-27T23:24:18.280Z,12.20
2019-04-27T23:29:21.714Z,11.07
2019-04-27T23:34:25.238Z,11.47
2019-04-27T23:39:28.660Z,12.93
2019-04-27T23:44:32.070Z,15.23
2019-04-27T23:49:35.496Z,17.23
2019-04-27T23:54:38.977Z,11.77
2019-04-27T23:59:42.387Z,8.93
